sensor_id;sensor_type;location;lat;lon;timestamp;P1;durP1;ratioP1;P2;durP2;ratioP2
62654;SDS011;48717;55.556;37.816;2022-11-11T00:01:16;49.10;;;18.70;;
62654;SDS011;48717;55.556;37.816;2022-11-11T00:04:02;46.40;;;18.42;;
62654;SDS011;48717;55.556;37.816;2022-11-11T00:06:48;28.52;;;13.10;;
62654;SDS011;48717;55.556;37.816;2022-11-11T00:09:33;40.08;;;17.25;;
62654;SDS011;48717;55.556;37.816;2022-11-11T00:12:20;28.55;;;12.68;;
62654;SDS011;48717;55.556;37.816;2022-11-11T00:15:11;47.70;;;18.85;;
62654;SDS011;48717;55.556;37.816;2022-11-11T00:17:57;32.63;;;12.43;;
62654;SDS011;48717;55.556;37.816;2022-11-11T00:21:15;29.45;;;12.90;;
62654;SDS011;48717;55.556;37.816;2022-11-11T00:27:26;26.63;;;11.95;;
62654;SDS011;48717;55.556;37.816;2022-11-11T00:30:12;51.53;;;19.85;;
62654;SDS011;48717;55.556;37.816;2022-11-11T00:32:57;33.45;;;13.75;;
62654;SDS011;48717;55.556;37.816;2022-11-11T00:35:43;36.63;;;13.38;;
62654;SDS011;48717;55.556;37.816;2022-11-11T00:38:38;43.40;;;18.92;;
62654;SDS011;48717;55.556;37.816;2022-11-11T00:41:32;45.67;;;18.40;;
62654;SDS011;48717;55.556;37.816;2022-11-11T00:44:18;33.22;;;14.57;;
62654;SDS011;48717;55.556;37.816;2022-11-11T00:47:03;30.55;;;14.02;;
62654;SDS011;48717;55.556;37.816;2022-11-11T00:50:14;34.45;;;12.68;;
62654;SDS011;48717;55.556;37.816;2022-11-11T00:53:22;32.67;;;12.43;;
62654;SDS011;48717;55.556;37.816;2022-11-11T00:58:57;31.92;;;13.13;;
62654;SDS011;48717;55.556;37.816;2022-11-11T01:01:43;31.80;;;12.95;;
62654;SDS011;48717;55.556;37.816;2022-11-11T01:04:28;32.40;;;15.38;;
62654;SDS011;48717;55.556;37.816;2022-11-11T01:07:14;35.90;;;14.88;;
62654;SDS011;48717;55.556;37.816;2022-11-11T01:10:00;31.13;;;12.15;;
62654;SDS011;48717;55.556;37.816;2022-11-11T01:12:46;37.50;;;15.45;;
62654;SDS011;48717;55.556;37.816;2022-11-11T01:15:32;21.70;;;10.93;;
62654;SDS011;48717;55.556;37.816;2022-11-11T01:18:20;38.20;;;15.93;;
62654;SDS011;48717;55.556;37.816;2022-11-11T01:23:56;47.05;;;17.75;;
62654;SDS011;48717;55.556;37.816;2022-11-11T01:26:42;48.38;;;17.90;;
62654;SDS011;48717;55.556;37.816;2022-11-11T01:29:27;27.48;;;11.25;;
62654;SDS011;48717;55.556;37.816;2022-11-11T01:32:13;23.70;;;10.05;;
62654;SDS011;48717;55.556;37.816;2022-11-11T01:34:59;42.88;;;15.52;;
62654;SDS011;48717;55.556;37.816;2022-11-11T01:37:44;29.60;;;11.93;;
62654;SDS011;48717;55.556;37.816;2022-11-11T01:40:30;32.70;;;14.10;;
62654;SDS011;48717;55.556;37.816;2022-11-11T01:43:17;39.08;;;12.93;;
62654;SDS011;48717;55.556;37.816;2022-11-11T01:49:05;34.22;;;11.45;;
62654;SDS011;48717;55.556;37.816;2022-11-11T01:55:17;47.97;;;18.20;;
62654;SDS011;48717;55.556;37.816;2022-11-11T01:58:06;42.00;;;15.40;;
62654;SDS011;48717;55.556;37.816;2022-11-11T02:00:56;51.80;;;20.17;;
62654;SDS011;48717;55.556;37.816;2022-11-11T02:03:43;48.25;;;16.95;;
62654;SDS011;48717;55.556;37.816;2022-11-11T02:06:54;29.45;;;11.65;;
62654;SDS011;48717;55.556;37.816;2022-11-11T02:09:43;38.45;;;13.75;;
62654;SDS011;48717;55.556;37.816;2022-11-11T02:12:31;41.67;;;15.32;;
62654;SDS011;48717;55.556;37.816;2022-11-11T02:15:55;31.38;;;11.65;;
62654;SDS011;48717;55.556;37.816;2022-11-11T02:18:41;41.65;;;13.90;;
62654;SDS011;48717;55.556;37.816;2022-11-11T02:21:41;29.35;;;11.32;;
62654;SDS011;48717;55.556;37.816;2022-11-11T02:24:31;37.42;;;12.65;;
62654;SDS011;48717;55.556;37.816;2022-11-11T02:27:17;37.13;;;12.23;;
62654;SDS011;48717;55.556;37.816;2022-11-11T02:30:04;27.20;;;10.70;;
62654;SDS011;48717;55.556;37.816;2022-11-11T02:32:52;30.98;;;12.70;;
62654;SDS011;48717;55.556;37.816;2022-11-11T02:35:48;22.25;;;11.38;;
62654;SDS011;48717;55.556;37.816;2022-11-11T02:38:43;19.75;;;9.90;;
62654;SDS011;48717;55.556;37.816;2022-11-11T02:41:29;29.77;;;10.88;;
62654;SDS011;48717;55.556;37.816;2022-11-11T02:44:34;24.20;;;10.50;;
62654;SDS011;48717;55.556;37.816;2022-11-11T02:47:24;27.77;;;11.18;;
62654;SDS011;48717;55.556;37.816;2022-11-11T02:50:11;39.90;;;13.85;;
62654;SDS011;48717;55.556;37.816;2022-11-11T02:52:56;33.05;;;12.15;;
62654;SDS011;48717;55.556;37.816;2022-11-11T02:55:42;27.00;;;11.30;;
62654;SDS011;48717;55.556;37.816;2022-11-11T02:58:28;35.72;;;12.10;;
62654;SDS011;48717;55.556;37.816;2022-11-11T03:01:14;25.95;;;9.73;;
62654;SDS011;48717;55.556;37.816;2022-11-11T03:04:04;40.40;;;14.25;;
62654;SDS011;48717;55.556;37.816;2022-11-11T03:06:50;17.70;;;8.68;;
62654;SDS011;48717;55.556;37.816;2022-11-11T03:09:36;33.72;;;11.68;;
62654;SDS011;48717;55.556;37.816;2022-11-11T03:12:21;25.77;;;8.30;;
62654;SDS011;48717;55.556;37.816;2022-11-11T03:15:07;37.63;;;14.10;;
62654;SDS011;48717;55.556;37.816;2022-11-11T03:17:53;25.35;;;10.13;;
62654;SDS011;48717;55.556;37.816;2022-11-11T03:20:39;32.35;;;12.73;;
62654;SDS011;48717;55.556;37.816;2022-11-11T03:23:44;20.88;;;9.27;;
62654;SDS011;48717;55.556;37.816;2022-11-11T03:26:29;19.38;;;7.55;;
62654;SDS011;48717;55.556;37.816;2022-11-11T03:29:16;34.72;;;12.18;;
62654;SDS011;48717;55.556;37.816;2022-11-11T03:32:01;31.08;;;11.43;;
62654;SDS011;48717;55.556;37.816;2022-11-11T03:34:47;26.42;;;10.50;;
62654;SDS011;48717;55.556;37.816;2022-11-11T03:37:33;21.00;;;9.18;;
62654;SDS011;48717;55.556;37.816;2022-11-11T03:40:37;34.67;;;13.15;;
62654;SDS011;48717;55.556;37.816;2022-11-11T03:43:26;31.33;;;12.57;;
62654;SDS011;48717;55.556;37.816;2022-11-11T03:46:14;25.25;;;10.82;;
62654;SDS011;48717;55.556;37.816;2022-11-11T03:49:00;25.08;;;9.35;;
62654;SDS011;48717;55.556;37.816;2022-11-11T03:51:46;18.48;;;8.23;;
62654;SDS011;48717;55.556;37.816;2022-11-11T03:54:32;22.00;;;8.85;;
62654;SDS011;48717;55.556;37.816;2022-11-11T03:57:17;25.17;;;10.27;;
62654;SDS011;48717;55.556;37.816;2022-11-11T04:00:16;24.73;;;9.68;;
62654;SDS011;48717;55.556;37.816;2022-11-11T04:03:12;23.88;;;9.13;;
62654;SDS011;48717;55.556;37.816;2022-11-11T04:06:17;26.63;;;8.85;;
62654;SDS011;48717;55.556;37.816;2022-11-11T04:09:22;17.23;;;7.03;;
62654;SDS011;48717;55.556;37.816;2022-11-11T04:12:27;20.50;;;9.48;;
62654;SDS011;48717;55.556;37.816;2022-11-11T04:15:15;17.20;;;7.55;;
62654;SDS011;48717;55.556;37.816;2022-11-11T04:18:19;24.25;;;9.70;;
62654;SDS011;48717;55.556;37.816;2022-11-11T04:21:24;24.75;;;9.05;;
62654;SDS011;48717;55.556;37.816;2022-11-11T04:24:29;12.27;;;6.22;;
62654;SDS011;48717;55.556;37.816;2022-11-11T04:27:33;15.35;;;6.88;;
62654;SDS011;48717;55.556;37.816;2022-11-11T04:30:19;16.90;;;6.70;;
62654;SDS011;48717;55.556;37.816;2022-11-11T04:33:04;28.77;;;10.50;;
62654;SDS011;48717;55.556;37.816;2022-11-11T04:35:50;14.48;;;6.57;;
62654;SDS011;48717;55.556;37.816;2022-11-11T04:38:35;15.05;;;6.13;;
62654;SDS011;48717;55.556;37.816;2022-11-11T04:41:40;19.17;;;8.05;;
62654;SDS011;48717;55.556;37.816;2022-11-11T04:44:45;15.88;;;5.30;;
62654;SDS011;48717;55.556;37.816;2022-11-11T04:50:39;19.90;;;8.02;;
62654;SDS011;48717;55.556;37.816;2022-11-11T04:53:28;15.77;;;6.93;;
62654;SDS011;48717;55.556;37.816;2022-11-11T04:56:14;20.10;;;7.88;;
62654;SDS011;48717;55.556;37.816;2022-11-11T04:59:19;16.08;;;6.97;;
62654;SDS011;48717;55.556;37.816;2022-11-11T05:02:04;14.63;;;6.22;;
62654;SDS011;48717;55.556;37.816;2022-11-11T05:05:09;16.48;;;6.93;;
62654;SDS011;48717;55.556;37.816;2022-11-11T05:07:54;17.48;;;6.80;;
62654;SDS011;48717;55.556;37.816;2022-11-11T05:10:59;16.48;;;7.65;;
62654;SDS011;48717;55.556;37.816;2022-11-11T05:13:44;17.02;;;8.45;;
62654;SDS011;48717;55.556;37.816;2022-11-11T05:19:53;33.22;;;11.45;;
62654;SDS011;48717;55.556;37.816;2022-11-11T05:22:57;23.35;;;10.07;;
62654;SDS011;48717;55.556;37.816;2022-11-11T05:25:43;16.73;;;7.63;;
62654;SDS011;48717;55.556;37.816;2022-11-11T05:28:29;24.02;;;10.35;;
62654;SDS011;48717;55.556;37.816;2022-11-11T05:31:14;21.55;;;9.57;;
62654;SDS011;48717;55.556;37.816;2022-11-11T05:34:00;17.45;;;8.05;;
62654;SDS011;48717;55.556;37.816;2022-11-11T05:36:45;14.85;;;6.35;;
62654;SDS011;48717;55.556;37.816;2022-11-11T05:39:31;30.40;;;10.57;;
62654;SDS011;48717;55.556;37.816;2022-11-11T05:42:16;26.83;;;11.07;;
62654;SDS011;48717;55.556;37.816;2022-11-11T05:45:02;30.67;;;11.15;;
62654;SDS011;48717;55.556;37.816;2022-11-11T05:47:48;16.10;;;7.82;;
62654;SDS011;48717;55.556;37.816;2022-11-11T05:50:34;15.98;;;7.47;;
62654;SDS011;48717;55.556;37.816;2022-11-11T05:53:22;17.10;;;7.28;;
62654;SDS011;48717;55.556;37.816;2022-11-11T05:56:09;14.45;;;6.22;;
62654;SDS011;48717;55.556;37.816;2022-11-11T05:58:54;13.43;;;6.53;;
62654;SDS011;48717;55.556;37.816;2022-11-11T06:01:40;22.77;;;10.48;;
62654;SDS011;48717;55.556;37.816;2022-11-11T06:04:26;25.50;;;11.52;;
62654;SDS011;48717;55.556;37.816;2022-11-11T06:07:13;24.13;;;9.50;;
62654;SDS011;48717;55.556;37.816;2022-11-11T06:09:58;11.32;;;5.22;;
62654;SDS011;48717;55.556;37.816;2022-11-11T06:13:04;12.52;;;5.97;;
62654;SDS011;48717;55.556;37.816;2022-11-11T06:15:52;16.80;;;7.25;;
62654;SDS011;48717;55.556;37.816;2022-11-11T06:18:40;14.10;;;6.47;;
62654;SDS011;48717;55.556;37.816;2022-11-11T06:21:26;8.95;;;5.65;;
62654;SDS011;48717;55.556;37.816;2022-11-11T06:24:12;25.80;;;9.75;;
62654;SDS011;48717;55.556;37.816;2022-11-11T06:26:57;28.23;;;10.68;;
62654;SDS011;48717;55.556;37.816;2022-11-11T06:29:44;28.50;;;11.65;;
62654;SDS011;48717;55.556;37.816;2022-11-11T06:32:29;24.80;;;10.35;;
62654;SDS011;48717;55.556;37.816;2022-11-11T06:35:15;22.13;;;9.95;;
62654;SDS011;48717;55.556;37.816;2022-11-11T06:38:01;24.00;;;11.60;;
62654;SDS011;48717;55.556;37.816;2022-11-11T06:40:48;18.58;;;9.23;;
62654;SDS011;48717;55.556;37.816;2022-11-11T06:43:33;19.33;;;8.52;;
62654;SDS011;48717;55.556;37.816;2022-11-11T06:46:20;19.13;;;7.80;;
62654;SDS011;48717;55.556;37.816;2022-11-11T06:49:08;20.77;;;10.27;;
62654;SDS011;48717;55.556;37.816;2022-11-11T06:51:53;28.55;;;12.27;;
62654;SDS011;48717;55.556;37.816;2022-11-11T06:54:39;27.38;;;12.07;;
62654;SDS011;48717;55.556;37.816;2022-11-11T06:57:24;14.70;;;8.13;;
62654;SDS011;48717;55.556;37.816;2022-11-11T07:00:10;26.50;;;12.45;;
62654;SDS011;48717;55.556;37.816;2022-11-11T07:02:57;27.90;;;11.75;;
62654;SDS011;48717;55.556;37.816;2022-11-11T07:05:42;14.48;;;7.30;;
62654;SDS011;48717;55.556;37.816;2022-11-11T07:08:29;13.15;;;5.97;;
62654;SDS011;48717;55.556;37.816;2022-11-11T07:11:14;25.30;;;11.07;;
62654;SDS011;48717;55.556;37.816;2022-11-11T07:14:03;20.40;;;10.15;;
62654;SDS011;48717;55.556;37.816;2022-11-11T07:16:49;17.05;;;8.32;;
62654;SDS011;48717;55.556;37.816;2022-11-11T07:19:35;17.60;;;8.93;;
62654;SDS011;48717;55.556;37.816;2022-11-11T07:22:21;23.60;;;9.50;;
62654;SDS011;48717;55.556;37.816;2022-11-11T07:25:06;14.40;;;7.38;;
62654;SDS011;48717;55.556;37.816;2022-11-11T07:27:52;10.48;;;4.93;;
62654;SDS011;48717;55.556;37.816;2022-11-11T07:30:43;21.45;;;8.35;;
62654;SDS011;48717;55.556;37.816;2022-11-11T07:33:29;25.33;;;11.07;;
62654;SDS011;48717;55.556;37.816;2022-11-11T07:36:15;22.27;;;8.35;;
62654;SDS011;48717;55.556;37.816;2022-11-11T07:39:01;19.80;;;8.30;;
62654;SDS011;48717;55.556;37.816;2022-11-11T07:41:52;18.45;;;8.07;;
62654;SDS011;48717;55.556;37.816;2022-11-11T07:44:38;24.90;;;9.20;;
62654;SDS011;48717;55.556;37.816;2022-11-11T07:47:28;22.65;;;8.80;;
62654;SDS011;48717;55.556;37.816;2022-11-11T07:50:14;13.07;;;5.65;;
62654;SDS011;48717;55.556;37.816;2022-11-11T07:53:00;21.20;;;8.90;;
62654;SDS011;48717;55.556;37.816;2022-11-11T07:55:45;23.67;;;10.18;;
62654;SDS011;48717;55.556;37.816;2022-11-11T07:58:31;21.00;;;9.93;;
62654;SDS011;48717;55.556;37.816;2022-11-11T08:01:17;18.35;;;9.45;;
62654;SDS011;48717;55.556;37.816;2022-11-11T08:04:03;20.35;;;8.85;;
62654;SDS011;48717;55.556;37.816;2022-11-11T08:06:51;20.13;;;9.23;;
62654;SDS011;48717;55.556;37.816;2022-11-11T08:10:05;21.25;;;8.32;;
62654;SDS011;48717;55.556;37.816;2022-11-11T08:12:54;22.08;;;10.15;;
62654;SDS011;48717;55.556;37.816;2022-11-11T08:15:58;27.20;;;10.68;;
62654;SDS011;48717;55.556;37.816;2022-11-11T08:18:47;27.70;;;10.60;;
62654;SDS011;48717;55.556;37.816;2022-11-11T08:21:32;23.83;;;9.93;;
62654;SDS011;48717;55.556;37.816;2022-11-11T08:24:18;27.80;;;11.65;;
62654;SDS011;48717;55.556;37.816;2022-11-11T08:27:24;15.82;;;7.05;;
62654;SDS011;48717;55.556;37.816;2022-11-11T08:30:10;16.38;;;8.38;;
62654;SDS011;48717;55.556;37.816;2022-11-11T08:33:00;10.18;;;5.10;;
62654;SDS011;48717;55.556;37.816;2022-11-11T08:36:07;16.27;;;7.13;;
62654;SDS011;48717;55.556;37.816;2022-11-11T08:39:01;20.73;;;9.55;;
62654;SDS011;48717;55.556;37.816;2022-11-11T08:41:47;17.10;;;8.02;;
62654;SDS011;48717;55.556;37.816;2022-11-11T08:44:32;15.93;;;7.40;;
62654;SDS011;48717;55.556;37.816;2022-11-11T08:47:18;22.77;;;9.60;;
62654;SDS011;48717;55.556;37.816;2022-11-11T08:50:06;21.92;;;10.13;;
62654;SDS011;48717;55.556;37.816;2022-11-11T08:52:52;28.15;;;9.35;;
62654;SDS011;48717;55.556;37.816;2022-11-11T08:55:38;18.05;;;8.93;;
62654;SDS011;48717;55.556;37.816;2022-11-11T08:58:23;15.95;;;8.05;;
62654;SDS011;48717;55.556;37.816;2022-11-11T09:01:12;21.75;;;8.48;;
62654;SDS011;48717;55.556;37.816;2022-11-11T09:03:59;31.23;;;10.50;;
62654;SDS011;48717;55.556;37.816;2022-11-11T09:07:08;17.80;;;7.75;;
62654;SDS011;48717;55.556;37.816;2022-11-11T09:09:54;17.33;;;6.63;;
62654;SDS011;48717;55.556;37.816;2022-11-11T09:12:40;19.00;;;8.30;;
62654;SDS011;48717;55.556;37.816;2022-11-11T09:15:26;18.35;;;8.93;;
62654;SDS011;48717;55.556;37.816;2022-11-11T09:18:12;18.67;;;7.22;;
62654;SDS011;48717;55.556;37.816;2022-11-11T09:20:58;15.68;;;8.02;;
62654;SDS011;48717;55.556;37.816;2022-11-11T09:23:44;19.02;;;9.27;;
62654;SDS011;48717;55.556;37.816;2022-11-11T09:26:30;17.63;;;7.40;;
62654;SDS011;48717;55.556;37.816;2022-11-11T09:29:16;13.10;;;7.18;;
62654;SDS011;48717;55.556;37.816;2022-11-11T09:32:02;14.23;;;7.18;;
62654;SDS011;48717;55.556;37.816;2022-11-11T09:34:48;16.88;;;7.78;;
62654;SDS011;48717;55.556;37.816;2022-11-11T09:37:34;15.57;;;8.70;;
62654;SDS011;48717;55.556;37.816;2022-11-11T09:40:20;20.80;;;10.18;;
62654;SDS011;48717;55.556;37.816;2022-11-11T09:46:00;12.15;;;6.97;;
62654;SDS011;48717;55.556;37.816;2022-11-11T09:52:18;14.77;;;7.75;;
62654;SDS011;48717;55.556;37.816;2022-11-11T09:58:24;9.30;;;5.22;;
62654;SDS011;48717;55.556;37.816;2022-11-11T10:01:22;11.95;;;6.28;;
62654;SDS011;48717;55.556;37.816;2022-11-11T10:13:35;13.20;;;6.95;;
62654;SDS011;48717;55.556;37.816;2022-11-11T10:19:45;12.07;;;6.57;;
62654;SDS011;48717;55.556;37.816;2022-11-11T10:23:04;14.38;;;6.82;;
62654;SDS011;48717;55.556;37.816;2022-11-11T10:26:23;9.38;;;4.97;;
62654;SDS011;48717;55.556;37.816;2022-11-11T10:33:08;13.55;;;6.93;;
62654;SDS011;48717;55.556;37.816;2022-11-11T10:36:12;8.70;;;4.38;;
62654;SDS011;48717;55.556;37.816;2022-11-11T10:39:19;12.73;;;6.55;;
62654;SDS011;48717;55.556;37.816;2022-11-11T10:42:42;9.85;;;5.97;;
62654;SDS011;48717;55.556;37.816;2022-11-11T10:45:44;13.75;;;7.13;;
62654;SDS011;48717;55.556;37.816;2022-11-11T10:49:13;13.27;;;7.57;;
62654;SDS011;48717;55.556;37.816;2022-11-11T10:52:21;16.58;;;6.07;;
62654;SDS011;48717;55.556;37.816;2022-11-11T10:55:36;16.10;;;7.28;;
62654;SDS011;48717;55.556;37.816;2022-11-11T10:58:42;8.63;;;5.75;;
62654;SDS011;48717;55.556;37.816;2022-11-11T11:01:34;9.98;;;5.30;;
62654;SDS011;48717;55.556;37.816;2022-11-11T11:07:26;7.80;;;4.43;;
62654;SDS011;48717;55.556;37.816;2022-11-11T11:10:40;13.60;;;7.20;;
62654;SDS011;48717;55.556;37.816;2022-11-11T11:14:09;13.90;;;6.65;;
62654;SDS011;48717;55.556;37.816;2022-11-11T11:16:50;13.25;;;6.75;;
62654;SDS011;48717;55.556;37.816;2022-11-11T11:19:39;14.67;;;6.63;;
62654;SDS011;48717;55.556;37.816;2022-11-11T11:22:37;10.52;;;5.75;;
62654;SDS011;48717;55.556;37.816;2022-11-11T11:25:31;11.15;;;6.60;;
62654;SDS011;48717;55.556;37.816;2022-11-11T11:28:17;14.43;;;6.88;;
62654;SDS011;48717;55.556;37.816;2022-11-11T11:31:04;10.48;;;5.18;;
62654;SDS011;48717;55.556;37.816;2022-11-11T11:33:52;8.55;;;4.65;;
62654;SDS011;48717;55.556;37.816;2022-11-11T11:36:40;13.82;;;6.00;;
62654;SDS011;48717;55.556;37.816;2022-11-11T11:39:35;14.77;;;7.75;;
62654;SDS011;48717;55.556;37.816;2022-11-11T11:42:26;15.40;;;7.80;;
62654;SDS011;48717;55.556;37.816;2022-11-11T11:45:24;13.30;;;6.65;;
62654;SDS011;48717;55.556;37.816;2022-11-11T11:54:57;19.02;;;7.95;;
62654;SDS011;48717;55.556;37.816;2022-11-11T12:00:37;15.27;;;6.43;;
62654;SDS011;48717;55.556;37.816;2022-11-11T12:03:37;13.93;;;7.10;;
62654;SDS011;48717;55.556;37.816;2022-11-11T12:06:48;19.00;;;7.65;;
62654;SDS011;48717;55.556;37.816;2022-11-11T12:44:02;14.52;;;7.30;;
62654;SDS011;48717;55.556;37.816;2022-11-11T12:49:52;18.27;;;7.47;;
62654;SDS011;48717;55.556;37.816;2022-11-11T12:55:53;15.38;;;8.27;;
62654;SDS011;48717;55.556;37.816;2022-11-11T13:14:31;13.48;;;7.85;;
62654;SDS011;48717;55.556;37.816;2022-11-11T13:17:20;17.63;;;9.15;;
62654;SDS011;48717;55.556;37.816;2022-11-11T13:23:01;12.07;;;5.88;;
62654;SDS011;48717;55.556;37.816;2022-11-11T13:25:47;15.30;;;6.72;;
62654;SDS011;48717;55.556;37.816;2022-11-11T13:28:46;16.13;;;6.47;;
62654;SDS011;48717;55.556;37.816;2022-11-11T13:31:37;9.65;;;5.70;;
62654;SDS011;48717;55.556;37.816;2022-11-11T13:34:26;15.80;;;7.85;;
62654;SDS011;48717;55.556;37.816;2022-11-11T13:37:26;17.17;;;6.50;;
62654;SDS011;48717;55.556;37.816;2022-11-11T13:40:23;19.02;;;7.03;;
62654;SDS011;48717;55.556;37.816;2022-11-11T13:49:36;19.55;;;8.55;;
62654;SDS011;48717;55.556;37.816;2022-11-11T13:52:37;12.40;;;7.10;;
62654;SDS011;48717;55.556;37.816;2022-11-11T13:55:40;14.70;;;6.32;;
62654;SDS011;48717;55.556;37.816;2022-11-11T13:58:30;13.35;;;8.05;;
62654;SDS011;48717;55.556;37.816;2022-11-11T14:01:19;12.05;;;7.60;;
62654;SDS011;48717;55.556;37.816;2022-11-11T14:04:06;13.63;;;7.43;;
62654;SDS011;48717;55.556;37.816;2022-11-11T14:06:53;14.65;;;8.85;;
62654;SDS011;48717;55.556;37.816;2022-11-11T14:09:55;13.18;;;7.43;;
62654;SDS011;48717;55.556;37.816;2022-11-11T14:12:43;10.40;;;5.85;;
62654;SDS011;48717;55.556;37.816;2022-11-11T14:21:10;13.27;;;8.15;;
62654;SDS011;48717;55.556;37.816;2022-11-11T14:24:46;11.82;;;7.40;;
62654;SDS011;48717;55.556;37.816;2022-11-11T14:27:32;15.43;;;8.55;;
62654;SDS011;48717;55.556;37.816;2022-11-11T14:30:26;12.60;;;7.28;;
62654;SDS011;48717;55.556;37.816;2022-11-11T14:33:28;10.43;;;6.82;;
62654;SDS011;48717;55.556;37.816;2022-11-11T15:03:59;16.15;;;7.07;;
62654;SDS011;48717;55.556;37.816;2022-11-11T15:07:00;13.88;;;6.70;;
62654;SDS011;48717;55.556;37.816;2022-11-11T15:15:59;8.98;;;3.03;;
62654;SDS011;48717;55.556;37.816;2022-11-11T15:19:07;6.72;;;3.83;;
62654;SDS011;48717;55.556;37.816;2022-11-11T15:31:26;6.68;;;3.42;;
62654;SDS011;48717;55.556;37.816;2022-11-11T15:37:14;8.52;;;4.72;;
62654;SDS011;48717;55.556;37.816;2022-11-11T15:40:04;8.48;;;3.28;;
62654;SDS011;48717;55.556;37.816;2022-11-11T15:42:51;8.50;;;2.85;;
62654;SDS011;48717;55.556;37.816;2022-11-11T15:45:37;3.38;;;2.25;;
62654;SDS011;48717;55.556;37.816;2022-11-11T15:51:32;5.93;;;2.88;;
62654;SDS011;48717;55.556;37.816;2022-11-11T15:54:19;5.00;;;3.37;;
62654;SDS011;48717;55.556;37.816;2022-11-11T16:03:14;5.07;;;3.22;;
62654;SDS011;48717;55.556;37.816;2022-11-11T16:06:02;7.43;;;3.70;;
62654;SDS011;48717;55.556;37.816;2022-11-11T16:08:52;6.38;;;3.45;;
62654;SDS011;48717;55.556;37.816;2022-11-11T16:11:41;9.30;;;4.03;;
62654;SDS011;48717;55.556;37.816;2022-11-11T16:14:29;5.22;;;3.90;;
62654;SDS011;48717;55.556;37.816;2022-11-11T16:17:22;9.57;;;3.72;;
62654;SDS011;48717;55.556;37.816;2022-11-11T16:20:13;8.45;;;3.80;;
62654;SDS011;48717;55.556;37.816;2022-11-11T16:23:05;5.82;;;1.90;;
62654;SDS011;48717;55.556;37.816;2022-11-11T16:25:52;6.05;;;3.00;;
62654;SDS011;48717;55.556;37.816;2022-11-11T16:28:43;3.60;;;2.50;;
62654;SDS011;48717;55.556;37.816;2022-11-11T16:37:13;5.13;;;2.92;;
62654;SDS011;48717;55.556;37.816;2022-11-11T16:46:06;7.40;;;3.55;;
62654;SDS011;48717;55.556;37.816;2022-11-11T16:48:54;4.32;;;2.55;;
62654;SDS011;48717;55.556;37.816;2022-11-11T16:51:41;5.55;;;3.08;;
62654;SDS011;48717;55.556;37.816;2022-11-11T16:54:29;5.05;;;2.97;;
62654;SDS011;48717;55.556;37.816;2022-11-11T16:57:20;3.63;;;2.25;;
62654;SDS011;48717;55.556;37.816;2022-11-11T17:00:11;9.38;;;2.72;;
62654;SDS011;48717;55.556;37.816;2022-11-11T17:03:13;5.38;;;2.78;;
62654;SDS011;48717;55.556;37.816;2022-11-11T17:06:08;6.90;;;3.40;;
62654;SDS011;48717;55.556;37.816;2022-11-11T17:08:55;16.48;;;3.60;;
62654;SDS011;48717;55.556;37.816;2022-11-11T17:11:44;6.53;;;3.40;;
62654;SDS011;48717;55.556;37.816;2022-11-11T17:14:36;5.60;;;2.85;;
62654;SDS011;48717;55.556;37.816;2022-11-11T17:17:22;5.70;;;3.03;;
62654;SDS011;48717;55.556;37.816;2022-11-11T17:20:16;6.57;;;2.95;;
62654;SDS011;48717;55.556;37.816;2022-11-11T17:23:06;11.05;;;4.05;;
62654;SDS011;48717;55.556;37.816;2022-11-11T17:25:55;4.55;;;3.10;;
62654;SDS011;48717;55.556;37.816;2022-11-11T17:28:45;5.88;;;3.10;;
62654;SDS011;48717;55.556;37.816;2022-11-11T17:31:31;5.95;;;4.32;;
62654;SDS011;48717;55.556;37.816;2022-11-11T17:34:16;7.88;;;4.03;;
62654;SDS011;48717;55.556;37.816;2022-11-11T17:37:04;6.00;;;3.33;;
62654;SDS011;48717;55.556;37.816;2022-11-11T17:39:49;9.95;;;4.35;;
62654;SDS011;48717;55.556;37.816;2022-11-11T17:42:36;7.72;;;3.88;;
62654;SDS011;48717;55.556;37.816;2022-11-11T17:45:22;6.93;;;3.28;;
62654;SDS011;48717;55.556;37.816;2022-11-11T17:48:08;6.82;;;3.78;;
62654;SDS011;48717;55.556;37.816;2022-11-11T17:50:55;7.88;;;4.47;;
62654;SDS011;48717;55.556;37.816;2022-11-11T17:53:41;8.63;;;3.72;;
62654;SDS011;48717;55.556;37.816;2022-11-11T17:56:27;5.90;;;3.65;;
62654;SDS011;48717;55.556;37.816;2022-11-11T17:59:18;8.13;;;3.90;;
62654;SDS011;48717;55.556;37.816;2022-11-11T18:02:03;6.18;;;3.30;;
62654;SDS011;48717;55.556;37.816;2022-11-11T18:04:49;9.93;;;5.70;;
62654;SDS011;48717;55.556;37.816;2022-11-11T18:07:38;6.90;;;4.35;;
62654;SDS011;48717;55.556;37.816;2022-11-11T18:10:29;8.07;;;4.13;;
62654;SDS011;48717;55.556;37.816;2022-11-11T18:13:15;12.57;;;5.93;;
62654;SDS011;48717;55.556;37.816;2022-11-11T18:22:43;9.05;;;5.13;;
62654;SDS011;48717;55.556;37.816;2022-11-11T18:40:41;6.95;;;4.25;;
62654;SDS011;48717;55.556;37.816;2022-11-11T18:43:50;10.55;;;4.90;;
62654;SDS011;48717;55.556;37.816;2022-11-11T18:46:49;15.60;;;5.85;;
62654;SDS011;48717;55.556;37.816;2022-11-11T18:49:38;8.63;;;5.05;;
62654;SDS011;48717;55.556;37.816;2022-11-11T18:52:31;16.15;;;6.43;;
62654;SDS011;48717;55.556;37.816;2022-11-11T18:55:28;13.02;;;7.47;;
62654;SDS011;48717;55.556;37.816;2022-11-11T18:58:14;8.63;;;4.55;;
62654;SDS011;48717;55.556;37.816;2022-11-11T19:04:46;9.88;;;4.63;;
62654;SDS011;48717;55.556;37.816;2022-11-11T19:07:41;12.82;;;5.50;;
62654;SDS011;48717;55.556;37.816;2022-11-11T19:10:28;9.50;;;5.03;;
62654;SDS011;48717;55.556;37.816;2022-11-11T19:13:25;10.47;;;4.70;;
62654;SDS011;48717;55.556;37.816;2022-11-11T19:16:21;8.50;;;5.13;;
62654;SDS011;48717;55.556;37.816;2022-11-11T19:19:13;7.45;;;4.28;;
62654;SDS011;48717;55.556;37.816;2022-11-11T19:22:00;8.88;;;5.22;;
62654;SDS011;48717;55.556;37.816;2022-11-11T19:24:47;7.53;;;4.22;;
62654;SDS011;48717;55.556;37.816;2022-11-11T19:27:33;7.70;;;4.72;;
62654;SDS011;48717;55.556;37.816;2022-11-11T19:30:19;6.90;;;5.13;;
62654;SDS011;48717;55.556;37.816;2022-11-11T19:33:15;10.13;;;5.53;;
62654;SDS011;48717;55.556;37.816;2022-11-11T19:36:12;8.55;;;4.00;;
62654;SDS011;48717;55.556;37.816;2022-11-11T19:39:00;7.97;;;4.18;;
62654;SDS011;48717;55.556;37.816;2022-11-11T19:41:46;9.35;;;5.38;;
62654;SDS011;48717;55.556;37.816;2022-11-11T19:44:31;8.25;;;5.18;;
62654;SDS011;48717;55.556;37.816;2022-11-11T19:47:17;8.98;;;5.47;;
62654;SDS011;48717;55.556;37.816;2022-11-11T19:50:03;8.38;;;4.80;;
62654;SDS011;48717;55.556;37.816;2022-11-11T19:52:48;9.35;;;4.53;;
62654;SDS011;48717;55.556;37.816;2022-11-11T19:55:34;11.25;;;5.72;;
62654;SDS011;48717;55.556;37.816;2022-11-11T19:58:20;6.38;;;4.15;;
62654;SDS011;48717;55.556;37.816;2022-11-11T20:01:07;8.43;;;4.45;;
62654;SDS011;48717;55.556;37.816;2022-11-11T20:03:57;8.70;;;4.57;;
62654;SDS011;48717;55.556;37.816;2022-11-11T20:06:43;7.47;;;3.88;;
62654;SDS011;48717;55.556;37.816;2022-11-11T20:09:28;5.20;;;3.75;;
62654;SDS011;48717;55.556;37.816;2022-11-11T20:12:16;12.43;;;5.95;;
62654;SDS011;48717;55.556;37.816;2022-11-11T20:15:01;7.40;;;5.07;;
62654;SDS011;48717;55.556;37.816;2022-11-11T20:17:50;6.63;;;4.70;;
62654;SDS011;48717;55.556;37.816;2022-11-11T20:20:35;7.53;;;4.72;;
62654;SDS011;48717;55.556;37.816;2022-11-11T20:23:21;8.05;;;4.85;;